Atlantic Winter — CQDI — position and weather

sailwx.info

Track history (hours):
 
Tides and Currents Weather Stations Pressure Air Temp Water Temp Dewpoint Dewpoint Depression Visibility Wind Speed Wind Dir Waves Ship Positions

Atlantic Winter

Last reported at 2018-Feb-25 21:37 UTC. Time now 2018-Feb-25 23:58 UTC.
Position N 25°10' E 121°24'.

Length 166 m; draft 7.5 m.

Type: Cargo ship. MMSI: 255805785.

Date/timePositionNaut miles runAvg speedWind from/ knotsBaromVisibWave heightAir tempDewpointWater temp
2018-Feb-25 21:37N 25°10' E 121°24'0 0.0
2018-Feb-25 21:25N 25°10' E 121°24'0 0.0
2018-Feb-25 20:46N 25°10' E 121°24'0 0.0
2018-Feb-25 20:28N 25°10' E 121°24'0 0.0
2018-Feb-25 19:37N 25°10' E 121°24'0 0.0
2018-Feb-25 19:28N 25°10' E 121°24'0 0.0
2018-Feb-25 18:49N 25°10' E 121°24'0 0.0
2018-Feb-25 18:25N 25°10' E 121°24'0 0.0
2018-Feb-25 17:49N 25°10' E 121°24'0 0.3
2018-Feb-25 17:30N 25°10' E 121°24'3 5.7
2018-Feb-25 17:00N 25°09' E 121°21'3 5.5
2018-Feb-25 16:28N 25°12' E 121°19'1 1.8
2018-Feb-25 16:00N 25°12' E 121°20'0 0.2
2018-Feb-25 15:26N 25°12' E 121°20'0 0.0
2018-Feb-25 15:00N 25°12' E 121°20'0 0.1
2018-Feb-25 14:18N 25°12' E 121°20'0 0.0
2018-Feb-25 13:57N 25°12' E 121°20'0 0.1
2018-Feb-25 13:27N 25°12' E 121°20'0 0.1
2018-Feb-25 13:00N 25°12' E 121°20'0 0.0
2018-Feb-25 12:23N 25°12' E 121°20'0 0.0
2018-Feb-25 11:45N 25°12' E 121°20'0 0.0
2018-Feb-25 11:30N 25°12' E 121°20'0 0.0
2018-Feb-25 10:59N 25°12' E 121°20'0 0.1
2018-Feb-25 10:29N 25°12' E 121°20'0 0.0
2018-Feb-25 09:57N 25°12' E 121°20'0 0.0
2018-Feb-25 09:15N 25°12' E 121°20'0 0.0
2018-Feb-25 08:57N 25°12' E 121°20'0 0.0
2018-Feb-25 08:30N 25°12' E 121°20'0 0.0
2018-Feb-25 07:57N 25°12' E 121°20'0 0.0
2018-Feb-25 07:26N 25°12' E 121°20'0 0.0
2018-Feb-25 06:59N 25°12' E 121°20'0 0.0
2018-Feb-25 05:51N 25°12' E 121°20'0 0.0
2018-Feb-25 05:26N 25°12' E 121°20'0 0.0
2018-Feb-25 04:59N 25°12' E 121°20'0 0.1
2018-Feb-25 04:15N 25°12' E 121°20'0 0.0
2018-Feb-25 04:00N 25°12' E 121°20'0 0.0
2018-Feb-24 22:02N 25°12' E 121°20'0 2.3
2018-Feb-24 21:56N 25°12' E 121°20'4 7.0
2018-Feb-24 21:26N 25°14' E 121°16'1012.1
2018-Feb-24 20:36N 25°13' E 121°05'8213.9
2018-Feb-24 14:43N 24°10' E 120°07'314.0
2018-Feb-24 14:30N 24°08' E 120°05'713.8
2018-Feb-24 14:00N 24°03' E 120°01'713.1
2018-Feb-24 13:30N 23°57' E 119°57'812.9
2018-Feb-24 12:55N 23°49' E 119°57'912.8
2018-Feb-24 12:15N 23°41' E 119°56'513.0
2018-Feb-24 11:52N 23°36' E 119°56'712.9
2018-Feb-24 11:17N 23°28' E 119°56'413.1
2018-Feb-24 11:00N 23°24' E 119°56'612.7
2018-Feb-24 10:30N 23°18' E 119°55'1713.8
2018-Feb-24 09:17N 23°02' E 119°57'614.3
2018-Feb-24 08:53N 22°56' E 119°56'514.3
2018-Feb-24 08:30N 22°51' E 119°56'814.9
2018-Feb-24 08:00N 22°43' E 119°55'1214.8
2018-Feb-24 07:09N 22°31' E 119°55'614.5
2018-Feb-24 06:46N 22°25' E 119°55'  
Track history (hours):
 
Tides and Currents Weather Stations Pressure Air Temp Water Temp Dewpoint Dewpoint Depression Visibility Wind Speed Wind Dir Waves Ship Positions

Atlantic Winter

Last reported at 2018-Feb-25 21:37 UTC. Time now 2018-Feb-25 23:58 UTC.
Position N 25°10' E 121°24'.

Length 166 m; draft 7.5 m.

Type: Cargo ship. MMSI: 255805785.

Date/timePositionNaut miles runAvg speedWind from/ knotsBaromVisibWave heightAir tempDewpointWater temp
2018-Feb-25 21:37N 25°10' E 121°24'0 0.0
2018-Feb-25 21:25N 25°10' E 121°24'0 0.0
2018-Feb-25 20:46N 25°10' E 121°24'0 0.0
2018-Feb-25 20:28N 25°10' E 121°24'0 0.0
2018-Feb-25 19:37N 25°10' E 121°24'0 0.0
2018-Feb-25 19:28N 25°10' E 121°24'0 0.0
2018-Feb-25 18:49N 25°10' E 121°24'0 0.0
2018-Feb-25 18:25N 25°10' E 121°24'0 0.0
2018-Feb-25 17:49N 25°10' E 121°24'0 0.3
2018-Feb-25 17:30N 25°10' E 121°24'3 5.7
2018-Feb-25 17:00N 25°09' E 121°21'3 5.5
2018-Feb-25 16:28N 25°12' E 121°19'1 1.8
2018-Feb-25 16:00N 25°12' E 121°20'0 0.2
2018-Feb-25 15:26N 25°12' E 121°20'0 0.0
2018-Feb-25 15:00N 25°12' E 121°20'0 0.1
2018-Feb-25 14:18N 25°12' E 121°20'0 0.0
2018-Feb-25 13:57N 25°12' E 121°20'0 0.1
2018-Feb-25 13:27N 25°12' E 121°20'0 0.1
2018-Feb-25 13:00N 25°12' E 121°20'0 0.0
2018-Feb-25 12:23N 25°12' E 121°20'0 0.0
2018-Feb-25 11:45N 25°12' E 121°20'0 0.0
2018-Feb-25 11:30N 25°12' E 121°20'0 0.0
2018-Feb-25 10:59N 25°12' E 121°20'0 0.1
2018-Feb-25 10:29N 25°12' E 121°20'0 0.0
2018-Feb-25 09:57N 25°12' E 121°20'0 0.0
2018-Feb-25 09:15N 25°12' E 121°20'0 0.0
2018-Feb-25 08:57N 25°12' E 121°20'0 0.0
2018-Feb-25 08:30N 25°12' E 121°20'0 0.0
2018-Feb-25 07:57N 25°12' E 121°20'0 0.0
2018-Feb-25 07:26N 25°12' E 121°20'0 0.0
2018-Feb-25 06:59N 25°12' E 121°20'0 0.0
2018-Feb-25 05:51N 25°12' E 121°20'0 0.0
2018-Feb-25 05:26N 25°12' E 121°20'0 0.0
2018-Feb-25 04:59N 25°12' E 121°20'0 0.1
2018-Feb-25 04:15N 25°12' E 121°20'0 0.0
2018-Feb-25 04:00N 25°12' E 121°20'0 0.0
2018-Feb-24 22:02N 25°12' E 121°20'0 2.3
2018-Feb-24 21:56N 25°12' E 121°20'4 7.0
2018-Feb-24 21:26N 25°14' E 121°16'1012.1
2018-Feb-24 20:36N 25°13' E 121°05'8213.9
2018-Feb-24 14:43N 24°10' E 120°07'314.0
2018-Feb-24 14:30N 24°08' E 120°05'713.8
2018-Feb-24 14:00N 24°03' E 120°01'713.1
2018-Feb-24 13:30N 23°57' E 119°57'812.9
2018-Feb-24 12:55N 23°49' E 119°57'912.8
2018-Feb-24 12:15N 23°41' E 119°56'513.0
2018-Feb-24 11:52N 23°36' E 119°56'712.9
2018-Feb-24 11:17N 23°28' E 119°56'413.1
2018-Feb-24 11:00N 23°24' E 119°56'612.7
2018-Feb-24 10:30N 23°18' E 119°55'1713.8
2018-Feb-24 09:17N 23°02' E 119°57'614.3
2018-Feb-24 08:53N 22°56' E 119°56'514.3
2018-Feb-24 08:30N 22°51' E 119°56'814.9
2018-Feb-24 08:00N 22°43' E 119°55'1214.8
2018-Feb-24 07:09N 22°31' E 119°55'614.5
2018-Feb-24 06:46N 22°25' E 119°55'  

Dump ship's entire track history